createdAt,value
2019-03-19T00:01:08.822Z,5.13
2019-03-19T00:03:38.596Z,3.87
2019-03-19T00:06:08.366Z,3.70
2019-03-19T00:08:38.235Z,4.17
2019-03-19T00:11:08.006Z,3.50
2019-03-19T00:13:37.777Z,4.13
2019-03-19T00:16:07.641Z,3.90
2019-03-19T00:18:37.403Z,4.03
2019-03-19T00:21:07.168Z,4.30
2019-03-19T00:23:37.030Z,5.23
2019-03-19T00:26:06.882Z,4.20
2019-03-19T00:28:38.953Z,4.17
2019-03-19T00:31:08.105Z,3.20
2019-03-19T00:33:37.881Z,8.57
2019-03-19T00:36:07.652Z,3.67
2019-03-19T00:38:37.412Z,4.73
2019-03-19T00:41:07.267Z,3.20
2019-03-19T00:43:37.045Z,3.23
2019-03-19T00:46:06.806Z,3.47
2019-03-19T00:48:36.568Z,2.77
2019-03-19T00:51:06.342Z,2.90
2019-03-19T00:53:36.111Z,3.23
2019-03-19T00:56:05.878Z,2.80
2019-03-19T00:58:35.646Z,3.20
2019-03-19T01:01:05.518Z,3.93
2019-03-19T01:03:35.281Z,3.53
2019-03-19T01:06:05.072Z,5.77
2019-03-19T01:08:34.829Z,4.97
2019-03-19T01:11:04.623Z,5.40
2019-03-19T01:13:34.385Z,5.40
2019-03-19T01:16:04.178Z,5.67
2019-03-19T01:18:33.945Z,6.07
2019-03-19T01:21:03.718Z,5.00
2019-03-19T01:23:33.480Z,4.30
2019-03-19T01:26:03.219Z,5.80
2019-03-19T01:28:32.978Z,4.57
2019-03-19T01:31:02.737Z,5.07
2019-03-19T01:33:32.473Z,4.87
2019-03-19T01:36:02.210Z,3.57
2019-03-19T01:38:31.977Z,3.43
2019-03-19T01:41:01.718Z,4.03
2019-03-19T01:43:31.487Z,5.10
2019-03-19T01:46:01.247Z,5.10
2019-03-19T01:48:31.006Z,4.00
2019-03-19T01:51:00.765Z,4.10
2019-03-19T01:53:30.545Z,4.70
2019-03-19T01:56:05.066Z,5.33
2019-03-19T01:58:31.768Z,3.90
2019-03-19T02:01:01.537Z,3.30
2019-03-19T02:03:31.302Z,2.90
2019-03-19T02:06:01.062Z,3.33
2019-03-19T02:08:30.926Z,3.57
2019-03-19T02:11:00.685Z,3.10
2019-03-19T02:13:30.647Z,3.33
2019-03-19T02:16:00.423Z,2.90
2019-03-19T02:18:30.197Z,3.00
2019-03-19T02:21:00.006Z,2.40
2019-03-19T02:23:29.774Z,3.00
2019-03-19T02:25:59.532Z,2.57
2019-03-19T02:28:29.295Z,2.83
2019-03-19T02:30:59.058Z,3.33
2019-03-19T02:33:28.826Z,4.07
2019-03-19T02:35:58.593Z,3.30
2019-03-19T02:38:28.345Z,3.53
2019-03-19T02:40:58.106Z,3.33
2019-03-19T02:43:27.906Z,3.57
2019-03-19T02:45:57.669Z,2.93
2019-03-19T02:48:27.530Z,2.63
2019-03-19T02:50:57.303Z,3.60
2019-03-19T02:53:29.639Z,3.80
2019-03-19T02:55:58.543Z,3.87
2019-03-19T02:58:28.306Z,4.13
2019-03-19T03:00:58.075Z,4.50
2019-03-19T03:03:27.833Z,4.50
2019-03-19T03:05:57.600Z,5.03
2019-03-19T03:08:27.372Z,6.70
2019-03-19T03:10:57.142Z,4.57
2019-03-19T03:13:26.903Z,4.73
2019-03-19T03:15:56.671Z,4.97
2019-03-19T03:18:26.436Z,3.40
2019-03-19T03:20:56.195Z,4.57
2019-03-19T03:23:25.953Z,3.40
2019-03-19T03:25:55.717Z,3.37
2019-03-19T03:28:25.515Z,3.10
2019-03-19T03:30:55.276Z,3.63
2019-03-19T03:33:25.063Z,3.67
2019-03-19T03:35:54.825Z,4.13
2019-03-19T03:38:24.594Z,3.37
2019-03-19T03:40:54.378Z,4.20
2019-03-19T03:43:24.108Z,4.67
2019-03-19T03:45:53.878Z,4.13
2019-03-19T03:48:23.594Z,4.20
2019-03-19T03:50:53.357Z,4.27
2019-03-19T03:53:23.081Z,3.40
2019-03-19T03:55:52.863Z,3.50
2019-03-19T03:58:22.700Z,3.50
2019-03-19T04:00:52.465Z,3.93
2019-03-19T04:03:22.228Z,3.83
2019-03-19T04:05:51.996Z,4.10
2019-03-19T04:08:21.769Z,3.00
2019-03-19T04:10:51.656Z,3.80
2019-03-19T04:13:21.415Z,4.10
2019-03-19T04:15:51.186Z,4.47
2019-03-19T04:18:20.954Z,4.27
2019-03-19T04:20:50.729Z,4.10
2019-03-19T04:23:20.541Z,3.57
2019-03-19T04:25:50.325Z,3.63
2019-03-19T04:28:20.088Z,4.30
2019-03-19T04:30:49.866Z,12.77
2019-03-19T04:33:19.633Z,4.87
2019-03-19T04:35:49.396Z,5.07
2019-03-19T04:38:19.174Z,4.80
2019-03-19T04:40:49.703Z,3.87
2019-03-19T04:43:19.739Z,4.40
2019-03-19T04:45:49.509Z,3.93
2019-03-19T04:48:20.256Z,2.90
2019-03-19T04:50:50.130Z,3.47
2019-03-19T04:53:19.906Z,3.60
2019-03-19T04:55:49.663Z,3.83
2019-03-19T04:58:19.433Z,3.87
2019-03-19T05:00:49.195Z,3.40
2019-03-19T05:03:18.965Z,3.63
2019-03-19T05:05:48.747Z,3.90
2019-03-19T05:08:18.515Z,3.47
2019-03-19T05:10:48.292Z,3.00
2019-03-19T05:13:18.063Z,2.33
2019-03-19T05:15:47.830Z,2.80
2019-03-19T05:18:17.589Z,3.10
2019-03-19T05:20:47.366Z,2.33
2019-03-19T05:23:17.125Z,3.40
2019-03-19T05:25:46.893Z,4.17
2019-03-19T05:28:16.662Z,5.60
2019-03-19T05:30:46.431Z,4.60
2019-03-19T05:33:16.194Z,5.07
2019-03-19T05:35:45.952Z,6.07
2019-03-19T05:38:15.727Z,4.17
2019-03-19T05:40:45.494Z,4.10
2019-03-19T05:43:18.285Z,4.07
2019-03-19T05:45:48.078Z,3.33
2019-03-19T05:48:17.833Z,3.70
2019-03-19T05:50:47.631Z,3.80
2019-03-19T05:53:17.388Z,3.07
2019-03-19T05:55:47.162Z,3.30
2019-03-19T05:58:16.926Z,3.73
2019-03-19T06:00:46.836Z,3.33
2019-03-19T06:03:16.598Z,3.40
2019-03-19T06:05:46.340Z,3.30
2019-03-19T06:08:16.102Z,4.30
2019-03-19T06:10:45.842Z,4.80
2019-03-19T06:13:15.618Z,4.87
2019-03-19T06:15:45.342Z,4.00
2019-03-19T06:18:15.108Z,3.13
2019-03-19T06:20:44.955Z,4.37
2019-03-19T06:23:14.713Z,8.57
2019-03-19T06:25:44.436Z,4.80
2019-03-19T06:28:14.199Z,3.90
2019-03-19T06:30:43.943Z,3.80
2019-03-19T06:33:13.696Z,6.27
2019-03-19T06:35:43.424Z,4.83
2019-03-19T06:38:13.199Z,5.70
2019-03-19T06:40:42.961Z,4.40
2019-03-19T06:43:12.734Z,4.20
2019-03-19T06:45:42.507Z,4.13
2019-03-19T06:48:12.264Z,3.37
2019-03-19T06:50:45.426Z,3.57
2019-03-19T06:53:13.507Z,3.97
2019-03-19T06:55:43.278Z,3.60
2019-03-19T06:58:13.055Z,4.30
2019-03-19T07:00:42.826Z,4.03
2019-03-19T07:03:12.597Z,4.10
2019-03-19T07:05:42.373Z,3.10
2019-03-19T07:08:12.128Z,5.07
2019-03-19T07:10:41.900Z,4.40
2019-03-19T07:13:11.677Z,4.70
2019-03-19T07:15:41.472Z,3.77
2019-03-19T07:18:11.264Z,5.97
2019-03-19T07:20:41.033Z,6.63
2019-03-19T07:23:10.808Z,6.00
2019-03-19T07:25:40.569Z,4.30
2019-03-19T07:28:21.444Z,3.97
2019-03-19T07:30:41.822Z,4.03
2019-03-19T07:33:11.579Z,3.80
2019-03-19T07:35:41.351Z,4.10
2019-03-19T07:38:11.126Z,5.33
2019-03-19T07:40:40.897Z,4.53
2019-03-19T07:43:10.669Z,4.83
2019-03-19T07:45:40.434Z,4.93
2019-03-19T07:48:10.210Z,6.27
2019-03-19T07:50:39.987Z,6.17
2019-03-19T07:53:09.759Z,4.90
2019-03-19T07:55:39.535Z,6.97
2019-03-19T07:58:09.303Z,5.27
2019-03-19T08:00:39.099Z,5.10
2019-03-19T08:03:16.174Z,5.47
2019-03-19T08:05:40.341Z,5.07
2019-03-19T08:08:10.226Z,4.60
2019-03-19T08:10:39.985Z,7.60
2019-03-19T08:13:09.776Z,9.90
2019-03-19T08:15:39.543Z,14.17
2019-03-19T08:18:09.342Z,6.03
2019-03-19T08:20:39.116Z,5.00
2019-03-19T08:23:09.166Z,4.87
2019-03-19T08:25:38.994Z,5.23
2019-03-19T08:28:08.742Z,4.30
2019-03-19T08:30:38.512Z,6.97
2019-03-19T08:33:08.238Z,4.97
2019-03-19T08:35:38.213Z,6.40
2019-03-19T08:38:08.061Z,7.80
2019-03-19T08:40:37.825Z,5.17
2019-03-19T08:43:07.594Z,5.70
2019-03-19T08:45:37.361Z,7.23
2019-03-19T08:48:07.423Z,8.27
2019-03-19T08:50:37.198Z,8.77
2019-03-19T08:53:06.977Z,7.67
2019-03-19T08:55:36.749Z,5.53
2019-03-19T08:58:06.513Z,4.50
2019-03-19T09:00:36.303Z,5.87
2019-03-19T09:03:06.065Z,4.37
2019-03-19T09:05:35.831Z,5.77
2019-03-19T09:08:05.585Z,5.40
2019-03-19T09:10:35.430Z,5.20
2019-03-19T09:13:05.649Z,7.00
2019-03-19T09:15:35.389Z,5.27
2019-03-19T09:18:05.182Z,4.50
2019-03-19T09:20:35.016Z,6.23
2019-03-19T09:23:04.780Z,5.93
2019-03-19T09:25:34.541Z,5.20
2019-03-19T09:28:04.325Z,4.33
2019-03-19T09:30:34.135Z,4.60
2019-03-19T09:33:03.900Z,7.77
2019-03-19T09:35:33.668Z,7.83
2019-03-19T09:38:03.419Z,5.50
2019-03-19T09:40:33.317Z,5.73
2019-03-19T09:43:03.038Z,7.67
2019-03-19T09:45:32.804Z,6.80
2019-03-19T09:48:02.574Z,19.63
2019-03-19T09:50:32.449Z,6.07
2019-03-19T09:53:02.212Z,7.27
2019-03-19T09:55:31.991Z,10.73
2019-03-19T09:58:01.783Z,26.10
2019-03-19T10:00:31.513Z,9.27
2019-03-19T10:03:01.309Z,7.90
2019-03-19T10:05:31.096Z,15.67
2019-03-19T10:08:00.860Z,12.93
2019-03-19T10:10:30.770Z,6.67
2019-03-19T10:13:00.590Z,9.23
2019-03-19T10:15:30.387Z,7.27
2019-03-19T10:18:00.120Z,5.90
2019-03-19T10:20:30.319Z,5.67
2019-03-19T10:23:00.200Z,4.60
2019-03-19T10:25:29.995Z,7.40
2019-03-19T10:27:59.761Z,5.77
2019-03-19T10:30:29.520Z,6.40
2019-03-19T10:32:59.293Z,6.70
2019-03-19T10:35:29.021Z,6.07
2019-03-19T10:37:58.903Z,12.63
2019-03-19T10:40:28.634Z,7.93
2019-03-19T10:42:58.403Z,4.87
2019-03-19T10:45:28.173Z,7.37
2019-03-19T10:47:57.961Z,6.17
2019-03-19T10:50:28.347Z,12.87
2019-03-19T10:52:58.156Z,56.43
2019-03-19T10:55:27.936Z,16.07
2019-03-19T10:57:57.723Z,25.33
2019-03-19T11:00:28.011Z,22.03
2019-03-19T11:02:57.744Z,4.87
2019-03-19T11:05:27.543Z,5.00
2019-03-19T11:07:57.282Z,7.43
2019-03-19T11:10:27.043Z,5.97
2019-03-19T11:12:56.806Z,4.87
2019-03-19T11:15:27.511Z,10.87
2019-03-19T11:17:57.274Z,22.27
2019-03-19T11:20:27.147Z,10.03
2019-03-19T11:22:57.021Z,7.13
2019-03-19T11:25:30.511Z,11.27
2019-03-19T11:28:00.274Z,7.90
2019-03-19T11:30:31.063Z,6.20
2019-03-19T11:33:00.840Z,7.30
2019-03-19T11:35:30.715Z,10.73
2019-03-19T11:38:00.478Z,10.63
2019-03-19T11:40:30.566Z,9.33
2019-03-19T11:43:00.392Z,11.67
2019-03-19T11:45:30.172Z,3.87
2019-03-19T11:47:59.935Z,3.33
2019-03-19T11:50:33.184Z,5.57
2019-03-19T11:53:02.373Z,5.03
2019-03-19T11:55:32.113Z,8.53
2019-03-19T11:58:01.888Z,4.87
2019-03-19T12:00:36.259Z,6.67
2019-03-19T12:03:14.777Z,4.30
2019-03-19T12:05:38.017Z,4.60
2019-03-19T12:08:08.394Z,4.77
2019-03-19T12:10:38.166Z,6.43
2019-03-19T12:13:08.212Z,8.50
2019-03-19T12:15:37.973Z,5.37
2019-03-19T12:18:07.738Z,5.43
2019-03-19T12:20:37.497Z,3.93
2019-03-19T12:23:07.226Z,4.33
2019-03-19T12:25:37.017Z,5.50
2019-03-19T12:28:07.157Z,4.57
2019-03-19T12:30:36.951Z,4.73
2019-03-19T12:33:06.716Z,6.37
2019-03-19T12:35:36.496Z,4.20
2019-03-19T12:38:06.357Z,4.30
2019-03-19T12:40:37.493Z,3.00
2019-03-19T12:43:07.580Z,2.57
2019-03-19T12:45:37.304Z,3.07
2019-03-19T12:48:07.093Z,3.93
2019-03-19T12:50:37.059Z,4.77
2019-03-19T12:53:06.853Z,4.73
2019-03-19T12:55:36.630Z,5.47
2019-03-19T12:58:06.394Z,4.00
2019-03-19T13:00:36.163Z,5.00
2019-03-19T13:03:05.901Z,4.77
2019-03-19T13:05:35.687Z,5.13
2019-03-19T13:08:05.423Z,5.50
2019-03-19T13:10:35.195Z,5.90
2019-03-19T13:13:04.967Z,6.37
2019-03-19T13:15:34.761Z,8.30
2019-03-19T13:18:04.626Z,11.27
2019-03-19T13:20:34.523Z,10.80
2019-03-19T13:23:04.285Z,8.97
2019-03-19T13:25:34.071Z,8.07
2019-03-19T13:28:03.836Z,9.13
2019-03-19T13:30:44.066Z,9.10
2019-03-19T13:33:05.269Z,8.70
2019-03-19T13:35:35.002Z,7.00
2019-03-19T13:38:04.901Z,7.00
2019-03-19T13:40:34.627Z,4.97
2019-03-19T13:43:04.399Z,3.30
2019-03-19T13:45:34.169Z,3.10
2019-03-19T13:48:03.943Z,4.63
2019-03-19T13:50:33.732Z,12.40
2019-03-19T13:53:03.474Z,15.70
2019-03-19T13:55:33.275Z,22.70
2019-03-19T13:58:03.024Z,17.77
2019-03-19T14:00:32.846Z,12.93
2019-03-19T14:03:02.678Z,7.43
2019-03-19T14:05:32.559Z,9.93
2019-03-19T14:08:02.362Z,9.07
2019-03-19T14:10:32.185Z,7.60
2019-03-19T14:13:01.942Z,9.90
2019-03-19T14:15:31.686Z,9.20
2019-03-19T14:18:01.486Z,9.53
2019-03-19T14:20:31.270Z,13.00
2019-03-19T14:23:01.052Z,13.50
2019-03-19T14:25:30.823Z,9.10
2019-03-19T14:28:00.568Z,19.03
2019-03-19T14:30:30.346Z,6.77
2019-03-19T14:33:00.085Z,8.67
2019-03-19T14:35:37.193Z,10.40
2019-03-19T14:38:01.327Z,6.30
2019-03-19T14:40:31.220Z,14.10
2019-03-19T14:43:01.550Z,18.40
2019-03-19T14:45:31.541Z,7.63
2019-03-19T14:48:01.306Z,6.63
2019-03-19T14:50:31.190Z,7.87
2019-03-19T14:53:00.960Z,5.17
2019-03-19T14:55:30.777Z,5.23
2019-03-19T14:58:00.547Z,4.90
2019-03-19T15:00:30.642Z,4.77
2019-03-19T15:03:00.402Z,4.40
2019-03-19T15:05:30.502Z,7.50
2019-03-19T15:08:00.320Z,10.73
2019-03-19T15:10:31.559Z,9.90
2019-03-19T15:13:01.336Z,12.77
2019-03-19T15:15:31.344Z,7.63
2019-03-19T15:18:01.165Z,8.00
2019-03-19T15:20:30.929Z,6.40
2019-03-19T15:23:00.704Z,9.27
2019-03-19T15:25:30.520Z,12.50
2019-03-19T15:28:00.469Z,11.07
2019-03-19T15:30:30.235Z,9.73
2019-03-19T15:33:00.016Z,8.03
2019-03-19T15:35:29.820Z,8.60
2019-03-19T15:37:59.559Z,11.10
2019-03-19T15:40:29.347Z,11.57
2019-03-19T15:43:00.973Z,11.30
2019-03-19T15:45:31.450Z,14.37
2019-03-19T15:48:01.572Z,13.67
2019-03-19T15:50:31.369Z,29.77
2019-03-19T15:53:01.119Z,14.60
2019-03-19T15:55:30.909Z,21.23
2019-03-19T15:58:00.680Z,14.33
2019-03-19T16:00:30.463Z,24.63
2019-03-19T16:03:00.731Z,15.07
2019-03-19T16:05:30.958Z,16.50
2019-03-19T16:08:00.743Z,19.20
2019-03-19T16:10:30.575Z,16.93
2019-03-19T16:13:00.782Z,18.43
2019-03-19T16:15:30.533Z,17.60
2019-03-19T16:18:00.440Z,18.50
2019-03-19T16:20:38.955Z,21.97
2019-03-19T16:23:08.817Z,18.90
2019-03-19T16:25:38.633Z,19.83
2019-03-19T16:28:08.704Z,21.40
2019-03-19T16:30:38.503Z,22.33
2019-03-19T16:33:08.284Z,26.20
2019-03-19T16:35:38.056Z,21.13
2019-03-19T16:38:07.853Z,21.30
2019-03-19T16:40:37.619Z,23.53
2019-03-19T16:43:07.405Z,27.30
2019-03-19T16:45:37.174Z,52.43
2019-03-19T16:48:06.911Z,40.13
2019-03-19T16:50:36.804Z,57.67
2019-03-19T16:53:06.543Z,68.63
2019-03-19T16:55:36.317Z,71.47
2019-03-19T16:58:06.090Z,45.57
2019-03-19T17:00:35.879Z,42.57
2019-03-19T17:03:05.652Z,44.00
2019-03-19T17:05:35.461Z,68.50
2019-03-19T17:08:05.232Z,67.10
2019-03-19T17:10:35.018Z,68.73
2019-03-19T17:13:05.004Z,73.20
2019-03-19T17:15:34.796Z,68.13
2019-03-19T17:18:04.608Z,51.30
2019-03-19T17:20:34.343Z,45.57
2019-03-19T17:23:04.118Z,55.40
2019-03-19T17:25:33.891Z,81.17
2019-03-19T17:28:03.791Z,81.73
2019-03-19T17:30:35.217Z,77.17
2019-03-19T17:33:05.076Z,58.43
2019-03-19T17:35:34.869Z,46.20
2019-03-19T17:38:04.671Z,43.93
2019-03-19T17:40:41.331Z,84.90
2019-03-19T17:43:05.937Z,88.60
2019-03-19T17:45:35.935Z,82.47
2019-03-19T17:48:15.696Z,76.00
2019-03-19T17:50:39.735Z,69.03
2019-03-19T17:53:09.648Z,74.27
2019-03-19T17:55:39.431Z,77.53
2019-03-19T17:58:09.260Z,84.53
2019-03-19T18:00:46.413Z,89.73
2019-03-19T18:03:16.227Z,103.50
2019-03-19T18:05:46.012Z,106.77
2019-03-19T18:08:15.793Z,110.47
2019-03-19T18:10:45.708Z,115.17
2019-03-19T18:13:15.452Z,124.50
2019-03-19T18:15:49.998Z,133.30
2019-03-19T18:18:46.355Z,144.57
2019-03-19T18:21:13.793Z,146.07
2019-03-19T18:23:54.183Z,143.00
2019-03-19T18:26:41.917Z,126.33
2019-03-19T18:29:12.856Z,120.00
2019-03-19T18:31:42.755Z,153.37
2019-03-19T18:34:12.716Z,196.50
2019-03-19T18:36:42.573Z,206.80
2019-03-19T18:39:12.369Z,184.70
2019-03-19T18:41:42.605Z,211.87
2019-03-19T18:44:37.005Z,216.80
2019-03-19T18:46:57.409Z,235.20
2019-03-19T18:49:29.120Z,210.47
2019-03-19T18:51:59.038Z,191.60
2019-03-19T18:54:28.951Z,196.53
2019-03-19T18:56:58.788Z,171.10
2019-03-19T18:59:28.578Z,160.80
2019-03-19T19:02:01.428Z,182.53
2019-03-19T19:04:36.164Z,178.03
2019-03-19T19:07:07.405Z,180.33
2019-03-19T19:09:38.322Z,186.07
2019-03-19T19:12:08.181Z,179.33
2019-03-19T19:14:38.728Z,131.83
2019-03-19T19:17:09.306Z,137.27
2019-03-19T19:19:39.989Z,142.43
2019-03-19T19:22:10.304Z,137.00
2019-03-19T19:24:40.899Z,154.47
2019-03-19T19:27:11.440Z,294.27
2019-03-19T19:29:41.682Z,289.00
2019-03-19T19:32:12.170Z,249.63
2019-03-19T19:34:43.103Z,198.47
2019-03-19T19:37:28.146Z,147.13
2019-03-19T19:39:49.923Z,127.83
2019-03-19T19:42:19.861Z,122.50
2019-03-19T19:44:51.831Z,115.90
2019-03-19T19:47:28.873Z,109.37
2019-03-19T19:49:59.342Z,127.57
2019-03-19T19:52:29.874Z,116.20
2019-03-19T19:55:00.364Z,114.63
2019-03-19T19:57:30.939Z,111.43
2019-03-19T20:00:02.475Z,111.60
2019-03-19T20:02:33.193Z,118.17
2019-03-19T20:05:03.739Z,125.10
2019-03-19T20:07:35.917Z,138.07
2019-03-19T20:10:11.879Z,163.47
2019-03-19T20:12:41.969Z,148.80
2019-03-19T20:15:13.723Z,182.70
2019-03-19T20:17:44.212Z,238.87
2019-03-19T20:20:17.604Z,255.27
2019-03-19T20:22:47.980Z,251.43
2019-03-19T20:25:18.987Z,220.83
2019-03-19T20:27:49.413Z,271.17
2019-03-19T20:30:25.740Z,219.13
2019-03-19T20:32:56.588Z,238.00
2019-03-19T20:35:27.455Z,236.00
2019-03-19T20:37:58.134Z,273.60
2019-03-19T20:40:29.821Z,272.77
2019-03-19T20:43:01.462Z,205.93
2019-03-19T20:45:32.205Z,191.03
2019-03-19T20:48:02.163Z,188.50
2019-03-19T20:50:34.895Z,185.83
2019-03-19T20:53:07.702Z,183.90
2019-03-19T20:55:38.338Z,177.30
2019-03-19T20:58:09.410Z,186.80
2019-03-19T21:00:39.962Z,196.13
2019-03-19T21:03:10.332Z,203.30
2019-03-19T21:05:40.994Z,194.40
2019-03-19T21:08:11.740Z,185.40
2019-03-19T21:10:43.564Z,191.47
2019-03-19T21:13:15.590Z,188.03
2019-03-19T21:15:48.004Z,168.87
2019-03-19T21:18:24.285Z,173.40
2019-03-19T21:20:55.382Z,130.20
2019-03-19T21:23:26.552Z,130.37
2019-03-19T21:25:57.109Z,108.80
2019-03-19T21:28:27.543Z,102.80
2019-03-19T21:30:57.958Z,98.07
2019-03-19T21:33:28.010Z,105.10
2019-03-19T21:35:58.952Z,109.63
2019-03-19T21:38:29.707Z,127.93
2019-03-19T21:41:01.143Z,131.77
2019-03-19T21:43:31.378Z,132.47
2019-03-19T21:46:05.202Z,154.73
2019-03-19T21:48:38.387Z,159.33
2019-03-19T21:51:10.719Z,169.87
2019-03-19T21:54:14.600Z,185.27
2019-03-19T21:56:57.806Z,190.63
2019-03-19T21:59:31.696Z,212.00
2019-03-19T22:02:05.375Z,179.40
2019-03-19T22:04:46.392Z,164.20
2019-03-19T22:07:59.306Z,151.40
2019-03-19T22:10:29.582Z,119.10
2019-03-19T22:13:00.025Z,99.47
2019-03-19T22:18:34.201Z,82.70
2019-03-19T22:21:03.985Z,79.23
2019-03-19T22:23:33.865Z,80.10
2019-03-19T22:26:03.651Z,84.93
2019-03-19T22:28:33.406Z,88.13
2019-03-19T22:31:03.212Z,97.13
2019-03-19T22:33:33.573Z,106.83
2019-03-19T22:36:03.755Z,108.57
2019-03-19T22:38:33.530Z,84.90
2019-03-19T22:41:03.319Z,75.67
2019-03-19T22:43:33.106Z,81.30
2019-03-19T22:46:02.883Z,82.40
2019-03-19T22:48:32.663Z,82.97
2019-03-19T22:51:02.414Z,88.63
2019-03-19T22:53:32.241Z,97.33
2019-03-19T22:56:01.993Z,88.33
2019-03-19T22:58:31.773Z,75.27
2019-03-19T23:01:01.953Z,67.87
2019-03-19T23:03:31.757Z,69.73
2019-03-19T23:06:01.529Z,68.30
2019-03-19T23:08:31.301Z,74.80
2019-03-19T23:11:01.079Z,77.60
2019-03-19T23:13:30.822Z,86.03
2019-03-19T23:16:00.641Z,90.07
2019-03-19T23:18:30.402Z,87.20
2019-03-19T23:21:00.214Z,88.97
2019-03-19T23:23:29.951Z,86.63
2019-03-19T23:25:59.774Z,85.87
2019-03-19T23:28:29.518Z,89.17
2019-03-19T23:30:59.288Z,88.33
2019-03-19T23:33:29.073Z,84.40
2019-03-19T23:35:58.888Z,82.27
2019-03-19T23:38:28.677Z,80.60
2019-03-19T23:40:58.469Z,79.47
2019-03-19T23:43:28.241Z,72.23
2019-03-19T23:45:57.999Z,73.20
2019-03-19T23:48:27.813Z,71.90
2019-03-19T23:50:57.593Z,70.37
2019-03-19T23:53:27.378Z,71.13
2019-03-19T23:55:57.150Z,73.13
2019-03-19T23:58:26.893Z,73.47
